Time;durP1;ratioP1;P1;durP2;ratioP2;P2;SDS_P1;SDS_P2;PMS_P1;PMS_P2;Temp;Humidity;BMP_temperature;BMP_pressure;BME280_temperature;BME280_humidity;BME280_pressure;Samples;Min_cycle;Max_cycle;Signal;HPM_P1;HPM_P2
2023/02/16 00:00:35;;;;;;;;;;;;;;;;;;5007770;28;19917;-87
2023/02/16 00:03:00;;;;;;;;;;;;;;;;;;5009138;28;19996;-88
2023/02/16 00:05:26;;;;;;;;;;;;;;;;;;5005774;28;19917;-88
2023/02/16 00:07:51;;;;;;;;;;;;;;;;;;5008013;28;20000;-92
2023/02/16 00:10:16;;;;;;;;;;;;;;;;;;5006804;28;19931;-85
2023/02/16 00:15:25;;;;;;;;;;;;;;;;;;5009737;28;19964;-83
2023/02/16 00:17:50;;;;;;;;;;;;;;;;;;5007815;28;19961;-93
2023/02/16 00:20:15;;;;;;;;;;;;;;;;;;5011996;28;19921;-90
2023/02/16 00:22:40;;;;;;;;;;;;;;;;;;5012592;28;19917;-91
2023/02/16 00:25:07;;;;;;;;;;;;;;;;;;5012947;28;19913;-92
2023/02/16 00:27:32;;;;;;;;;;;;;;;;;;5008657;28;19928;-90
2023/02/16 00:29:57;;;;;;;;;;;;;;;;;;5007099;28;19917;-88
2023/02/16 00:32:22;;;;;;;;;;;;;;;;;;5008344;28;19925;-85
2023/02/16 00:34:47;;;;;;;;;;;;;;;;;;5007803;28;19945;-90
2023/02/16 00:37:12;;;;;;;;;;;;;;;;;;5001932;28;19913;-85
2023/02/16 00:39:37;;;;;;;;;;;;;;;;;;5010626;28;20478;-86
2023/02/16 00:42:03;;;;;;;;;;;;;;;;;;5004874;28;20436;-89
2023/02/16 00:44:28;;;;;;;;;;;;;;;;;;5008078;28;19918;-91
2023/02/16 00:46:53;;;;;;;;;;;;;;;;;;5010067;28;19917;-89
2023/02/16 00:49:18;;;;;;;;;;;;;;;;;;5007109;28;19921;-90
2023/02/16 00:51:43;;;;;;;;;;;;;;;;;;5001747;28;19921;-90
2023/02/16 00:54:08;;;;;;;;;;;;;;;;;;5001030;28;19914;-90
2023/02/16 00:56:34;;;;;;;;;;;;;;;;;;5014150;28;20000;-90
2023/02/16 00:58:59;;;;;;;;;;;;;;;;;;5006877;28;19921;-88
2023/02/16 01:01:24;;;;;;;;;;;;;;;;;;5009278;28;19988;-92
2023/02/16 01:03:49;;;;;;;;;;;;;;;;;;5033427;23;19929;-84
2023/02/16 01:11:42;;;;;;;;;;;;;;;;;;5048108;28;19927;-81
2023/02/16 01:14:07;;;;;;;;;;;;;;;;;;5057308;28;19917;-80
2023/02/16 01:16:32;;;;;;;;;;;;;;;;;;5057982;28;19948;-82
2023/02/16 01:18:58;;;;;;;;;;;;;;;;;;5067499;28;19917;-83
2023/02/16 01:21:23;;;;;;;;;;;;;;;;;;5056168;28;19917;-83
2023/02/16 01:23:48;;;;;;;;;;;;;;;;;;5050280;28;20051;-81
2023/02/16 01:26:13;;;;;;;;;;;;;;;;;;5047033;28;19908;-81
2023/02/16 01:28:38;;;;;;;;;;;;;;;;;;5066891;28;19917;-80
2023/02/16 01:31:04;;;;;;;;;;;;;;;;;;5048450;28;20406;-79
2023/02/16 01:33:29;;;;;;;;;;;;;;;;;;5064085;28;19912;-80
2023/02/16 01:35:55;;;;;;;;;;;;;;;;;;5065838;28;20341;-81
2023/02/16 01:38:20;;;;;;;;;;;;;;;;;;5058428;28;19913;-80
2023/02/16 01:40:45;;;;;;;;;;;;;;;;;;5061787;28;20677;-80
2023/02/16 01:43:10;;;;;;;;;;;;;;;;;;5041450;28;19912;-80
2023/02/16 01:45:35;;;;;;;;;;;;;;;;;;5044024;28;19913;-78
2023/02/16 01:48:00;;;;;;;;;;;;;;;;;;5052254;28;19920;-78
2023/02/16 01:50:25;;;;;;;;;;;;;;;;;;5054614;28;19916;-79
2023/02/16 01:52:51;;;;;;;;;;;;;;;;;;5064403;28;19974;-81
2023/02/16 01:55:16;;;;;;;;;;;;;;;;;;5065449;28;19920;-80
2023/02/16 01:57:41;;;;;;;;;;;;;;;;;;5048360;28;19919;-78
2023/02/16 02:00:06;;;;;;;;;;;;;;;;;;5061322;28;19920;-79
2023/02/16 02:02:31;;;;;;;;;;;;;;;;;;5041314;28;19913;-80
2023/02/16 02:07:40;;;;;;;;;;;;;;;;;;5044248;28;19994;-82
2023/02/16 02:10:06;;;;;;;;;;;;;;;;;;5052087;28;19964;-82
2023/02/16 02:12:31;;;;;;;;;;;;;;;;;;5059639;28;19920;-82
2023/02/16 02:14:56;;;;;;;;;;;;;;;;;;5063916;28;19917;-80
2023/02/16 02:17:21;;;;;;;;;;;;;;;;;;5059830;28;19913;-79
2023/02/16 02:19:46;;;;;;;;;;;;;;;;;;5067222;28;20009;-83
2023/02/16 02:24:55;;;;;;;;;;;;;;;;;;5047850;28;19919;-82
2023/02/16 02:27:20;;;;;;;;;;;;;;;;;;5051049;28;19913;-82
2023/02/16 02:29:46;;;;;;;;;;;;;;;;;;5045594;28;19913;-82
2023/02/16 02:32:11;;;;;;;;;;;;;;;;;;5043875;28;19913;-81
2023/02/16 02:34:36;;;;;;;;;;;;;;;;;;5049027;28;19913;-81
2023/02/16 02:37:01;;;;;;;;;;;;;;;;;;5060679;28;20303;-81
2023/02/16 02:39:26;;;;;;;;;;;;;;;;;;5055558;28;20011;-81
2023/02/16 02:42:04;;;;;;;;;;;;;;;;;;5045057;28;19987;-82
2023/02/16 02:44:29;;;;;;;;;;;;;;;;;;5053696;28;19923;-82
2023/02/16 02:46:54;;;;;;;;;;;;;;;;;;5048083;28;19913;-82
2023/02/16 02:49:19;;;;;;;;;;;;;;;;;;5064978;28;20103;-82
2023/02/16 02:51:44;;;;;;;;;;;;;;;;;;5052386;28;20422;-81
2023/02/16 03:02:21;;;;;;;;;;;;;;;;;;5053260;28;19936;-81
2023/02/16 03:04:46;;;;;;;;;;;;;;;;;;5053454;28;19917;-81
2023/02/16 03:07:11;;;;;;;;;;;;;;;;;;5067279;28;20003;-81
2023/02/16 03:09:37;;;;;;;;;;;;;;;;;;5053009;28;20058;-81
2023/02/16 03:14:46;;;;;;;;;;;;;;;;;;5052303;28;19947;-82
2023/02/16 03:30:50;;;;;;;;;;;;;;;;;;5053291;28;19928;-85
2023/02/16 03:33:16;;;;;;;;;;;;;;;;;;5068666;28;19912;-83
2023/02/16 03:35:41;;;;;;;;;;;;;;;;;;5057970;28;19917;-82
2023/02/16 03:38:06;;;;;;;;;;;;;;;;;;5045339;28;19927;-83
2023/02/16 03:40:33;;;;;;;;;;;;;;;;;;5055570;28;19924;-83
2023/02/16 03:42:58;;;;;;;;;;;;;;;;;;5047496;28;20394;-83
2023/02/16 03:45:23;;;;;;;;;;;;;;;;;;5057540;28;19913;-81
2023/02/16 03:47:49;;;;;;;;;;;;;;;;;;5035304;28;20344;-82
2023/02/16 03:50:14;;;;;;;;;;;;;;;;;;5048868;28;20006;-83
2023/02/16 03:52:39;;;;;;;;;;;;;;;;;;5059904;28;19920;-82
2023/02/16 03:55:04;;;;;;;;;;;;;;;;;;5061617;28;19913;-83
2023/02/16 03:57:29;;;;;;;;;;;;;;;;;;5064184;28;20018;-85
2023/02/16 03:59:54;;;;;;;;;;;;;;;;;;5060053;28;19913;-85
2023/02/16 04:02:19;;;;;;;;;;;;;;;;;;5064109;28;19913;-85
2023/02/16 04:04:45;;;;;;;;;;;;;;;;;;5061969;28;20380;-85
2023/02/16 04:07:10;;;;;;;;;;;;;;;;;;5052848;28;19913;-85
2023/02/16 04:09:35;;;;;;;;;;;;;;;;;;5053566;28;20007;-80
2023/02/16 04:14:44;;;;;;;;;;;;;;;;;;5045973;28;20139;-83
2023/02/16 04:17:09;;;;;;;;;;;;;;;;;;5061938;28;20023;-85
2023/02/16 04:19:34;;;;;;;;;;;;;;;;;;5049197;28;19921;-85
2023/02/16 04:21:59;;;;;;;;;;;;;;;;;;5064204;28;19975;-85
2023/02/16 04:24:25;;;;;;;;;;;;;;;;;;5050706;28;20346;-85
2023/02/16 04:26:50;;;;;;;;;;;;;;;;;;5060317;28;20351;-82
2023/02/16 04:29:15;;;;;;;;;;;;;;;;;;5051323;28;19920;-81
2023/02/16 04:31:40;;;;;;;;;;;;;;;;;;5057956;28;20385;-82
2023/02/16 04:34:05;;;;;;;;;;;;;;;;;;5066527;28;19924;-81
2023/02/16 04:36:30;;;;;;;;;;;;;;;;;;5050897;28;19916;-82
2023/02/16 04:38:55;;;;;;;;;;;;;;;;;;5068279;28;20031;-83
2023/02/16 04:41:25;;;;;;;;;;;;;;;;;;5062216;28;19920;-84
2023/02/16 04:43:50;;;;;;;;;;;;;;;;;;5043839;28;19912;-84
2023/02/16 04:46:15;;;;;;;;;;;;;;;;;;5066787;28;20263;-84
2023/02/16 04:48:40;;;;;;;;;;;;;;;;;;5052624;28;19920;-84
2023/02/16 04:51:07;;;;;;;;;;;;;;;;;;5064887;28;19921;-83
2023/02/16 04:53:32;;;;;;;;;;;;;;;;;;5056075;28;19973;-84
2023/02/16 04:55:57;;;;;;;;;;;;;;;;;;5060987;28;19920;-83
2023/02/16 04:58:22;;;;;;;;;;;;;;;;;;5050262;28;20385;-85
2023/02/16 05:00:50;;;;;;;;;;;;;;;;;;5062943;28;19916;-85
2023/02/16 05:03:15;;;;;;;;;;;;;;;;;;5056702;28;20375;-85
2023/02/16 05:05:40;;;;;;;;;;;;;;;;;;5046253;28;19928;-83
2023/02/16 05:08:06;;;;;;;;;;;;;;;;;;5051584;28;19913;-88
2023/02/16 05:10:34;;;;;;;;;;;;;;;;;;5063126;28;19917;-87
2023/02/16 05:15:43;;;;;;;;;;;;;;;;;;5044025;28;19947;-86
2023/02/16 05:18:09;;;;;;;;;;;;;;;;;;5058108;28;20379;-87
2023/02/16 05:23:18;;;;;;;;;;;;;;;;;;5044334;28;19924;-85
2023/02/16 05:25:43;;;;;;;;;;;;;;;;;;5033911;28;20548;-82
2023/02/16 05:28:08;;;;;;;;;;;;;;;;;;5065865;28;20023;-85
2023/02/16 05:30:33;;;;;;;;;;;;;;;;;;5065608;28;19967;-87
2023/02/16 05:32:58;;;;;;;;;;;;;;;;;;5067775;28;19935;-87
2023/02/16 05:35:24;;;;;;;;;;;;;;;;;;5048408;28;20383;-85
2023/02/16 05:37:49;;;;;;;;;;;;;;;;;;5062260;28;20279;-86
2023/02/16 05:40:14;;;;;;;;;;;;;;;;;;5064073;28;19917;-86
2023/02/16 05:42:39;;;;;;;;;;;;;;;;;;5055850;28;19912;-86
2023/02/16 05:45:04;;;;;;;;;;;;;;;;;;5042580;28;19932;-86
2023/02/16 05:47:32;;;;;;;;;;;;;;;;;;5064441;28;19935;-87
2023/02/16 05:49:57;;;;;;;;;;;;;;;;;;5062931;28;20433;-87
2023/02/16 05:52:24;;;;;;;;;;;;;;;;;;5052925;28;22445;-82
2023/02/16 05:54:52;;;;;;;;;;;;;;;;;;5062317;28;19917;-85
2023/02/16 05:57:18;;;;;;;;;;;;;;;;;;5064314;28;19917;-78
2023/02/16 05:59:43;;;;;;;;;;;;;;;;;;5050434;28;19935;-83
2023/02/16 06:02:08;;;;;;;;;;;;;;;;;;5067151;28;19913;-80
2023/02/16 06:04:33;;;;;;;;;;;;;;;;;;5042700;28;20511;-81
2023/02/16 06:06:59;;;;;;;;;;;;;;;;;;5051683;28;19923;-83
2023/02/16 06:09:24;;;;;;;;;;;;;;;;;;5041240;28;19913;-82
2023/02/16 06:11:49;;;;;;;;;;;;;;;;;;5054087;28;19916;-80
2023/02/16 06:14:14;;;;;;;;;;;;;;;;;;5049622;28;20019;-80
2023/02/16 06:16:39;;;;;;;;;;;;;;;;;;5062063;28;19920;-83
2023/02/16 06:19:04;;;;;;;;;;;;;;;;;;5062909;28;19912;-84
2023/02/16 06:21:30;;;;;;;;;;;;;;;;;;5059555;28;19917;-84
2023/02/16 06:23:55;;;;;;;;;;;;;;;;;;5049826;28;19966;-84
2023/02/16 06:26:20;;;;;;;;;;;;;;;;;;5064803;28;20351;-85
2023/02/16 06:28:47;;;;;;;;;;;;;;;;;;5063875;28;19908;-85
2023/02/16 06:31:16;;;;;;;;;;;;;;;;;;5054508;28;19921;-84
2023/02/16 06:33:42;;;;;;;;;;;;;;;;;;5033532;28;19980;-80
2023/02/16 06:36:07;;;;;;;;;;;;;;;;;;5038450;28;19913;-80
2023/02/16 06:38:32;;;;;;;;;;;;;;;;;;5060819;28;19921;-83
2023/02/16 06:40:57;;;;;;;;;;;;;;;;;;5050356;28;19925;-82
2023/02/16 06:43:22;;;;;;;;;;;;;;;;;;5037718;28;19970;-82
2023/02/16 06:45:47;;;;;;;;;;;;;;;;;;5043076;28;19913;-83
2023/02/16 06:48:13;;;;;;;;;;;;;;;;;;5063979;28;19921;-84
2023/02/16 06:50:46;;;;;;;;;;;;;;;;;;5045664;28;19912;-83
2023/02/16 06:53:19;;;;;;;;;;;;;;;;;;5055720;28;20390;-82
2023/02/16 06:55:44;;;;;;;;;;;;;;;;;;5062641;28;20048;-80
2023/02/16 06:58:09;;;;;;;;;;;;;;;;;;5060236;28;19920;-81
2023/02/16 07:00:34;;;;;;;;;;;;;;;;;;5055310;28;19917;-81
2023/02/16 07:02:59;;;;;;;;;;;;;;;;;;5047746;28;20397;-79
2023/02/16 07:05:25;;;;;;;;;;;;;;;;;;5061392;28;19929;-80
2023/02/16 07:07:50;;;;;;;;;;;;;;;;;;5048150;28;20500;-80
2023/02/16 07:10:15;;;;;;;;;;;;;;;;;;5053868;28;19917;-79
2023/02/16 07:12:40;;;;;;;;;;;;;;;;;;5039288;28;19913;-79
2023/02/16 07:15:05;;;;;;;;;;;;;;;;;;5031511;28;19921;-80
2023/02/16 07:17:30;;;;;;;;;;;;;;;;;;5045405;28;19913;-80
2023/02/16 07:19:55;;;;;;;;;;;;;;;;;;5055523;28;19920;-81
2023/02/16 07:22:21;;;;;;;;;;;;;;;;;;5061790;28;19970;-80
2023/02/16 07:24:46;;;;;;;;;;;;;;;;;;5060941;28;19935;-81
2023/02/16 07:27:11;;;;;;;;;;;;;;;;;;5056312;28;19968;-80
2023/02/16 07:29:36;;;;;;;;;;;;;;;;;;5063372;28;19920;-81
2023/02/16 07:32:01;;;;;;;;;;;;;;;;;;5045793;28;19913;-80
2023/02/16 07:34:26;;;;;;;;;;;;;;;;;;5059298;28;19924;-85
2023/02/16 07:36:51;;;;;;;;;;;;;;;;;;5068341;28;19920;-79
2023/02/16 07:39:19;;;;;;;;;;;;;;;;;;5066106;28;19928;-83
2023/02/16 07:41:44;;;;;;;;;;;;;;;;;;5055363;28;20006;-81
2023/02/16 07:44:09;;;;;;;;;;;;;;;;;;5060823;28;19955;-81
2023/02/16 07:46:35;;;;;;;;;;;;;;;;;;5053590;28;19913;-80
2023/02/16 07:49:00;;;;;;;;;;;;;;;;;;5070293;28;20015;-79
2023/02/16 07:51:25;;;;;;;;;;;;;;;;;;5067428;28;19916;-79
2023/02/16 07:53:50;;;;;;;;;;;;;;;;;;5069080;28;19913;-79
2023/02/16 07:56:15;;;;;;;;;;;;;;;;;;5050795;28;20347;-80
2023/02/16 07:58:40;;;;;;;;;;;;;;;;;;5053418;28;19912;-80
2023/02/16 08:01:05;;;;;;;;;;;;;;;;;;5052650;28;19928;-81
2023/02/16 08:03:31;;;;;;;;;;;;;;;;;;5048374;28;20071;-78
2023/02/16 08:05:56;;;;;;;;;;;;;;;;;;5051986;28;19923;-78
2023/02/16 08:08:21;;;;;;;;;;;;;;;;;;5060172;28;19952;-78
2023/02/16 08:10:46;;;;;;;;;;;;;;;;;;5055242;28;20052;-78
2023/02/16 08:13:11;;;;;;;;;;;;;;;;;;5054833;28;19921;-80
2023/02/16 08:15:36;;;;;;;;;;;;;;;;;;5044217;28;19952;-79
2023/02/16 08:18:01;;;;;;;;;;;;;;;;;;5051100;28;19917;-79
2023/02/16 08:20:27;;;;;;;;;;;;;;;;;;5065789;28;20418;-79
2023/02/16 08:22:52;;;;;;;;;;;;;;;;;;5063750;28;20109;-78
2023/02/16 08:25:17;;;;;;;;;;;;;;;;;;5067999;28;19913;-78
2023/02/16 08:27:42;;;;;;;;;;;;;;;;;;5050784;28;19912;-79
2023/02/16 08:30:11;;;;;;;;;;;;;;;;;;5051739;28;20425;-80
2023/02/16 08:32:36;;;;;;;;;;;;;;;;;;5052459;28;19913;-79
2023/02/16 08:35:01;;;;;;;;;;;;;;;;;;5051383;28;19919;-80
2023/02/16 08:37:27;;;;;;;;;;;;;;;;;;5047695;28;19919;-80
2023/02/16 08:39:52;;;;;;;;;;;;;;;;;;5046949;28;20012;-79
2023/02/16 08:42:17;;;;;;;;;;;;;;;;;;5050594;28;20013;-82
2023/02/16 08:44:43;;;;;;;;;;;;;;;;;;5052721;28;19920;-78
2023/02/16 08:47:09;;;;;;;;;;;;;;;;;;5067183;28;19960;-79
2023/02/16 08:49:34;;;;;;;;;;;;;;;;;;5067003;28;19919;-79
2023/02/16 08:52:00;;;;;;;;;;;;;;;;;;5052808;28;19913;-79
2023/02/16 08:54:27;;;;;;;;;;;;;;;;;;5069718;28;19913;-79
2023/02/16 08:56:53;;;;;;;;;;;;;;;;;;5064461;28;19913;-79
2023/02/16 08:59:18;;;;;;;;;;;;;;;;;;5069265;28;19912;-79
2023/02/16 09:01:43;;;;;;;;;;;;;;;;;;5068105;28;19917;-79
2023/02/16 09:04:08;;;;;;;;;;;;;;;;;;5067628;28;19975;-79
2023/02/16 09:06:34;;;;;;;;;;;;;;;;;;5067016;28;19924;-78
2023/02/16 09:08:59;;;;;;;;;;;;;;;;;;5049339;28;19913;-78
2023/02/16 09:11:25;;;;;;;;;;;;;;;;;;5063678;28;20003;-79
2023/02/16 09:13:50;;;;;;;;;;;;;;;;;;5052952;28;19956;-79
2023/02/16 09:16:15;;;;;;;;;;;;;;;;;;5068720;28;19908;-79
2023/02/16 09:18:40;;;;;;;;;;;;;;;;;;5051914;28;19920;-79
2023/02/16 09:21:06;;;;;;;;;;;;;;;;;;5067645;28;20359;-78
2023/02/16 09:23:31;;;;;;;;;;;;;;;;;;5068786;28;19909;-78
2023/02/16 09:25:56;;;;;;;;;;;;;;;;;;5068173;28;19920;-79
2023/02/16 09:28:22;;;;;;;;;;;;;;;;;;5041438;28;19920;-78
2023/02/16 09:30:47;;;;;;;;;;;;;;;;;;5065195;28;19920;-78
2023/02/16 09:33:13;;;;;;;;;;;;;;;;;;5068199;28;19920;-79
2023/02/16 09:35:44;;;;;;;;;;;;;;;;;;5052090;28;20062;-79
2023/02/16 09:38:09;;;;;;;;;;;;;;;;;;5033319;28;19913;-79
2023/02/16 09:40:34;;;;;;;;;;;;;;;;;;5056937;28;19924;-78
2023/02/16 09:43:03;;;;;;;;;;;;;;;;;;5051825;28;19919;-79
2023/02/16 09:48:12;;;;;;;;;;;;;;;;;;5049198;28;19923;-80
2023/02/16 09:50:38;;;;;;;;;;;;;;;;;;5050858;28;19917;-79
2023/02/16 09:53:03;;;;;;;;;;;;;;;;;;5051219;28;20000;-79
2023/02/16 09:55:29;;;;;;;;;;;;;;;;;;5067872;28;20011;-79
2023/02/16 09:57:57;;;;;;;;;;;;;;;;;;5042708;28;19917;-79
2023/02/16 10:00:22;;;;;;;;;;;;;;;;;;5050292;28;19947;-79
2023/02/16 10:02:47;;;;;;;;;;;;;;;;;;5050907;28;19923;-80
2023/02/16 10:05:13;;;;;;;;;;;;;;;;;;5066364;28;19959;-79
2023/02/16 10:07:38;;;;;;;;;;;;;;;;;;5067128;28;19962;-79
2023/02/16 10:10:03;;;;;;;;;;;;;;;;;;5053093;28;19916;-80
2023/02/16 10:12:28;;;;;;;;;;;;;;;;;;5039182;28;20031;-80
2023/02/16 10:14:53;;;;;;;;;;;;;;;;;;5049798;28;19917;-79
2023/02/16 10:17:20;;;;;;;;;;;;;;;;;;5048374;28;20378;-79
2023/02/16 10:19:46;;;;;;;;;;;;;;;;;;5064701;28;19913;-79
2023/02/16 10:22:11;;;;;;;;;;;;;;;;;;5052394;28;19979;-81
2023/02/16 10:24:37;;;;;;;;;;;;;;;;;;5060474;28;19916;-80
2023/02/16 10:27:02;;;;;;;;;;;;;;;;;;5067317;28;20375;-79
2023/02/16 10:29:29;;;;;;;;;;;;;;;;;;5068031;28;19935;-79
2023/02/16 10:31:55;;;;;;;;;;;;;;;;;;5066863;28;19916;-79
2023/02/16 10:34:21;;;;;;;;;;;;;;;;;;5064426;28;20306;-79
2023/02/16 10:36:46;;;;;;;;;;;;;;;;;;5066316;28;20355;-79
2023/02/16 10:39:11;;;;;;;;;;;;;;;;;;5037872;28;19928;-79
2023/02/16 10:41:37;;;;;;;;;;;;;;;;;;5061518;28;19924;-78
2023/02/16 10:44:06;;;;;;;;;;;;;;;;;;5079320;28;19913;-79
2023/02/16 10:46:31;;;;;;;;;;;;;;;;;;5054995;28;19913;-80
2023/02/16 10:49:00;;;;;;;;;;;;;;;;;;5075625;28;19912;-81
2023/02/16 10:51:27;;;;;;;;;;;;;;;;;;5076125;28;19920;-79
2023/02/16 10:53:53;;;;;;;;;;;;;;;;;;5061062;28;19952;-80
2023/02/16 10:56:18;;;;;;;;;;;;;;;;;;5056665;28;20101;-79
2023/02/16 10:58:43;;;;;;;;;;;;;;;;;;5049132;28;19980;-80
2023/02/16 11:01:08;;;;;;;;;;;;;;;;;;5062836;28;19925;-80
2023/02/16 11:03:34;;;;;;;;;;;;;;;;;;5035033;28;19909;-80
2023/02/16 11:06:11;;;;;;;;;;;;;;;;;;5056246;28;19917;-80
2023/02/16 11:08:36;;;;;;;;;;;;;;;;;;5055390;28;20290;-79
2023/02/16 11:11:04;;;;;;;;;;;;;;;;;;5049066;28;19919;-79
2023/02/16 11:13:30;;;;;;;;;;;;;;;;;;5071355;28;19928;-80
2023/02/16 11:15:55;;;;;;;;;;;;;;;;;;5051138;28;20290;-80
2023/02/16 11:18:20;;;;;;;;;;;;;;;;;;5056773;28;20003;-81
2023/02/16 11:20:46;;;;;;;;;;;;;;;;;;5057126;28;19925;-79
2023/02/16 11:23:11;;;;;;;;;;;;;;;;;;5035601;28;19919;-80
2023/02/16 11:25:36;;;;;;;;;;;;;;;;;;5062811;28;19912;-77
2023/02/16 11:28:04;;;;;;;;;;;;;;;;;;5042738;28;19917;-78
2023/02/16 11:30:30;;;;;;;;;;;;;;;;;;5060543;28;19917;-78
2023/02/16 11:32:56;;;;;;;;;;;;;;;;;;5044862;28;19921;-78
2023/02/16 11:35:21;;;;;;;;;;;;;;;;;;5037649;28;19913;-78
2023/02/16 11:37:46;;;;;;;;;;;;;;;;;;5039468;28;19921;-77
2023/02/16 11:40:11;;;;;;;;;;;;;;;;;;5062348;28;20003;-78
2023/02/16 11:42:36;;;;;;;;;;;;;;;;;;5043363;28;19936;-77
2023/02/16 11:45:04;;;;;;;;;;;;;;;;;;5052734;28;19924;-79
2023/02/16 11:47:30;;;;;;;;;;;;;;;;;;5068819;28;19948;-74
2023/02/16 11:49:55;;;;;;;;;;;;;;;;;;5053538;28;20391;-76
2023/02/16 11:52:21;;;;;;;;;;;;;;;;;;5037010;28;19975;-78
2023/02/16 11:54:46;;;;;;;;;;;;;;;;;;5036025;28;19913;-78
2023/02/16 11:57:13;;;;;;;;;;;;;;;;;;5062946;28;19956;-77
2023/02/16 11:59:38;;;;;;;;;;;;;;;;;;5064300;28;19920;-77
2023/02/16 12:02:03;;;;;;;;;;;;;;;;;;5069409;28;19917;-78
2023/02/16 12:04:28;;;;;;;;;;;;;;;;;;5064846;28;19920;-78
2023/02/16 12:06:53;;;;;;;;;;;;;;;;;;5069453;28;19938;-78
2023/02/16 12:09:18;;;;;;;;;;;;;;;;;;5051318;28;19948;-78
2023/02/16 12:11:44;;;;;;;;;;;;;;;;;;5057617;28;19920;-80
2023/02/16 12:14:09;;;;;;;;;;;;;;;;;;5033463;28;20003;-81
2023/02/16 12:16:35;;;;;;;;;;;;;;;;;;5058422;28;19936;-80
2023/02/16 12:19:00;;;;;;;;;;;;;;;;;;5051576;28;20284;-77
2023/02/16 12:21:27;;;;;;;;;;;;;;;;;;5053916;28;20287;-80
2023/02/16 12:23:52;;;;;;;;;;;;;;;;;;5042298;28;19963;-83
2023/02/16 12:26:17;;;;;;;;;;;;;;;;;;5057589;28;19917;-81
2023/02/16 12:28:42;;;;;;;;;;;;;;;;;;5052435;28;19920;-80
2023/02/16 12:31:08;;;;;;;;;;;;;;;;;;5045195;28;19912;-79
2023/02/16 12:33:33;;;;;;;;;;;;;;;;;;5060766;28;20003;-80
2023/02/16 12:35:58;;;;;;;;;;;;;;;;;;5050499;28;19916;-77
2023/02/16 12:38:24;;;;;;;;;;;;;;;;;;5061336;28;19935;-76
2023/02/16 12:40:49;;;;;;;;;;;;;;;;;;5051283;28;19924;-77
2023/02/16 12:43:14;;;;;;;;;;;;;;;;;;5066703;28;19916;-78
2023/02/16 12:45:39;;;;;;;;;;;;;;;;;;5048818;28;19916;-78
2023/02/16 12:48:04;;;;;;;;;;;;;;;;;;5034118;28;20007;-77
2023/02/16 12:50:29;;;;;;;;;;;;;;;;;;5046407;28;19913;-77
2023/02/16 12:52:54;;;;;;;;;;;;;;;;;;5050528;28;20355;-77
2023/02/16 12:55:20;;;;;;;;;;;;;;;;;;5038691;28;19919;-78
2023/02/16 12:57:45;;;;;;;;;;;;;;;;;;5054115;28;19916;-77
2023/02/16 13:00:13;;;;;;;;;;;;;;;;;;5061427;28;19920;-76
2023/02/16 13:02:42;;;;;;;;;;;;;;;;;;5068341;28;20179;-77
2023/02/16 13:05:07;;;;;;;;;;;;;;;;;;5038388;28;20297;-76
2023/02/16 13:07:33;;;;;;;;;;;;;;;;;;5043587;28;19917;-78
2023/02/16 13:09:58;;;;;;;;;;;;;;;;;;5050239;28;19923;-77
2023/02/16 13:12:23;;;;;;;;;;;;;;;;;;5044152;28;19944;-77
2023/02/16 13:14:49;;;;;;;;;;;;;;;;;;5049684;28;19913;-76
2023/02/16 13:17:14;;;;;;;;;;;;;;;;;;5052202;28;19920;-75
2023/02/16 13:19:39;;;;;;;;;;;;;;;;;;5049929;28;20405;-76
2023/02/16 13:22:04;;;;;;;;;;;;;;;;;;5033054;28;19920;-76
2023/02/16 13:24:29;;;;;;;;;;;;;;;;;;5056328;28;19913;-76
2023/02/16 13:26:55;;;;;;;;;;;;;;;;;;5049260;28;19913;-75
2023/02/16 13:29:22;;;;;;;;;;;;;;;;;;5051342;28;19908;-78
2023/02/16 13:31:47;;;;;;;;;;;;;;;;;;5038125;28;20288;-77
2023/02/16 13:34:12;;;;;;;;;;;;;;;;;;5033196;28;19913;-77
2023/02/16 13:36:37;;;;;;;;;;;;;;;;;;5052425;28;19913;-77
2023/02/16 13:39:03;;;;;;;;;;;;;;;;;;5048498;28;20295;-77
2023/02/16 13:41:28;;;;;;;;;;;;;;;;;;5053021;28;19917;-78
2023/02/16 13:43:53;;;;;;;;;;;;;;;;;;5067460;28;19979;-77
2023/02/16 13:46:18;;;;;;;;;;;;;;;;;;5062246;28;19920;-77
2023/02/16 13:48:44;;;;;;;;;;;;;;;;;;5053174;28;20287;-77
2023/02/16 13:51:10;;;;;;;;;;;;;;;;;;5036083;28;19951;-77
2023/02/16 13:53:36;;;;;;;;;;;;;;;;;;5052837;28;19944;-78
2023/02/16 13:56:01;;;;;;;;;;;;;;;;;;5052174;28;19917;-78
2023/02/16 13:58:27;;;;;;;;;;;;;;;;;;5063125;28;19959;-76
2023/02/16 14:00:52;;;;;;;;;;;;;;;;;;5067639;28;19913;-77
2023/02/16 14:03:20;;;;;;;;;;;;;;;;;;5067503;28;19935;-77
2023/02/16 14:05:46;;;;;;;;;;;;;;;;;;5067646;28;19921;-76
2023/02/16 14:08:12;;;;;;;;;;;;;;;;;;5046638;28;19923;-76
2023/02/16 14:10:37;;;;;;;;;;;;;;;;;;5055987;28;19936;-77
2023/02/16 14:13:02;;;;;;;;;;;;;;;;;;5064008;28;19940;-77
2023/02/16 14:15:28;;;;;;;;;;;;;;;;;;5037688;28;20294;-78
2023/02/16 14:17:53;;;;;;;;;;;;;;;;;;5040127;28;19966;-78
2023/02/16 14:20:18;;;;;;;;;;;;;;;;;;5067789;28;19916;-77
2023/02/16 14:22:43;;;;;;;;;;;;;;;;;;5050293;28;19920;-77
2023/02/16 14:25:09;;;;;;;;;;;;;;;;;;5067592;28;20501;-78
2023/02/16 14:27:34;;;;;;;;;;;;;;;;;;5051440;28;20279;-78
2023/02/16 14:29:59;;;;;;;;;;;;;;;;;;5051325;28;19913;-78
2023/02/16 14:32:24;;;;;;;;;;;;;;;;;;5050647;28;20008;-77
2023/02/16 14:34:50;;;;;;;;;;;;;;;;;;5050751;28;19912;-77
2023/02/16 14:37:15;;;;;;;;;;;;;;;;;;5065676;28;20329;-77
2023/02/16 14:39:41;;;;;;;;;;;;;;;;;;5051624;28;19920;-77
2023/02/16 14:42:06;;;;;;;;;;;;;;;;;;5046777;28;20409;-77
2023/02/16 14:44:31;;;;;;;;;;;;;;;;;;5048591;28;20591;-77
2023/02/16 14:46:57;;;;;;;;;;;;;;;;;;5032143;28;19916;-77
2023/02/16 14:49:22;;;;;;;;;;;;;;;;;;5055122;28;19917;-77
2023/02/16 14:51:49;;;;;;;;;;;;;;;;;;5050601;28;19913;-76
2023/02/16 14:54:15;;;;;;;;;;;;;;;;;;5067667;28;19905;-76
2023/02/16 14:56:40;;;;;;;;;;;;;;;;;;5049860;28;19916;-76
2023/02/16 14:59:06;;;;;;;;;;;;;;;;;;5067596;28;20004;-76
2023/02/16 15:01:31;;;;;;;;;;;;;;;;;;5058238;28;20394;-77
2023/02/16 15:03:57;;;;;;;;;;;;;;;;;;5051970;28;19913;-77
2023/02/16 15:06:22;;;;;;;;;;;;;;;;;;5051368;28;20004;-77
2023/02/16 15:08:48;;;;;;;;;;;;;;;;;;5046397;28;19913;-76
2023/02/16 15:11:13;;;;;;;;;;;;;;;;;;5062783;28;19960;-77
2023/02/16 15:13:38;;;;;;;;;;;;;;;;;;5050353;28;19951;-76
2023/02/16 15:16:03;;;;;;;;;;;;;;;;;;5041550;28;19917;-77
2023/02/16 15:18:29;;;;;;;;;;;;;;;;;;5051465;28;19909;-76
2023/02/16 15:20:54;;;;;;;;;;;;;;;;;;5046490;28;19921;-76
2023/02/16 15:23:20;;;;;;;;;;;;;;;;;;5061212;28;19913;-76
2023/02/16 15:25:45;;;;;;;;;;;;;;;;;;5040161;28;19913;-76
2023/02/16 15:28:10;;;;;;;;;;;;;;;;;;5065710;28;19938;-76
2023/02/16 15:30:35;;;;;;;;;;;;;;;;;;5059398;28;20009;-76
2023/02/16 15:33:00;;;;;;;;;;;;;;;;;;5043634;28;19919;-77
2023/02/16 15:35:26;;;;;;;;;;;;;;;;;;5048635;28;19948;-76
2023/02/16 15:37:51;;;;;;;;;;;;;;;;;;5066426;28;19909;-77
2023/02/16 15:40:16;;;;;;;;;;;;;;;;;;5049634;28;20426;-76
2023/02/16 15:42:42;;;;;;;;;;;;;;;;;;5050625;28;20051;-77
2023/02/16 15:45:07;;;;;;;;;;;;;;;;;;5059073;28;19919;-77
2023/02/16 15:47:32;;;;;;;;;;;;;;;;;;5064946;28;20005;-77
2023/02/16 15:49:58;;;;;;;;;;;;;;;;;;5052920;28;20393;-77
2023/02/16 15:52:23;;;;;;;;;;;;;;;;;;5047247;28;19956;-76
2023/02/16 15:54:48;;;;;;;;;;;;;;;;;;5061952;28;19932;-77
2023/02/16 15:57:15;;;;;;;;;;;;;;;;;;5049834;28;19935;-76
2023/02/16 15:59:40;;;;;;;;;;;;;;;;;;5051765;28;19943;-77
2023/02/16 16:02:06;;;;;;;;;;;;;;;;;;5054337;28;20401;-75
2023/02/16 16:04:31;;;;;;;;;;;;;;;;;;5051397;28;19964;-76
2023/02/16 16:06:56;;;;;;;;;;;;;;;;;;5054154;28;19982;-76
2023/02/16 16:09:21;;;;;;;;;;;;;;;;;;5053032;28;19920;-76
2023/02/16 16:11:46;;;;;;;;;;;;;;;;;;5052995;28;19912;-77
2023/02/16 16:14:11;;;;;;;;;;;;;;;;;;5062901;28;19913;-77
2023/02/16 16:16:36;;;;;;;;;;;;;;;;;;5053573;28;19912;-76
2023/02/16 16:19:02;;;;;;;;;;;;;;;;;;5053507;28;19912;-76
2023/02/16 16:21:32;;;;;;;;;;;;;;;;;;5066822;28;20050;-77
2023/02/16 16:23:58;;;;;;;;;;;;;;;;;;5039270;28;20382;-76
2023/02/16 16:26:23;;;;;;;;;;;;;;;;;;5064661;28;19955;-75
2023/02/16 16:28:48;;;;;;;;;;;;;;;;;;5059186;28;19913;-77
2023/02/16 16:31:13;;;;;;;;;;;;;;;;;;5061721;28;20090;-77
2023/02/16 16:33:38;;;;;;;;;;;;;;;;;;5064498;28;19920;-77
2023/02/16 16:36:03;;;;;;;;;;;;;;;;;;5055797;28;20034;-77
2023/02/16 16:38:28;;;;;;;;;;;;;;;;;;5051878;28;20296;-78
2023/02/16 16:40:54;;;;;;;;;;;;;;;;;;5060998;28;20390;-77
2023/02/16 16:43:19;;;;;;;;;;;;;;;;;;5047779;28;19909;-77
2023/02/16 16:45:45;;;;;;;;;;;;;;;;;;5049508;28;19967;-77
2023/02/16 16:48:10;;;;;;;;;;;;;;;;;;5045661;28;19919;-77
2023/02/16 16:50:35;;;;;;;;;;;;;;;;;;5052982;28;19913;-77
2023/02/16 16:53:00;;;;;;;;;;;;;;;;;;5052493;28;19919;-77
2023/02/16 16:55:25;;;;;;;;;;;;;;;;;;5050603;28;19967;-77
2023/02/16 16:57:50;;;;;;;;;;;;;;;;;;5060807;28;19909;-77
2023/02/16 17:00:16;;;;;;;;;;;;;;;;;;5059836;28;19924;-77
2023/02/16 17:02:41;;;;;;;;;;;;;;;;;;5068423;28;19967;-77
2023/02/16 17:05:06;;;;;;;;;;;;;;;;;;5065241;28;19928;-77
2023/02/16 17:07:32;;;;;;;;;;;;;;;;;;5064019;28;19955;-77
2023/02/16 17:09:57;;;;;;;;;;;;;;;;;;5066129;28;19920;-77
2023/02/16 17:12:22;;;;;;;;;;;;;;;;;;5063732;28;20011;-78
2023/02/16 17:14:47;;;;;;;;;;;;;;;;;;5049206;28;19924;-77
2023/02/16 17:17:12;;;;;;;;;;;;;;;;;;5039763;28;20359;-77
2023/02/16 17:19:37;;;;;;;;;;;;;;;;;;5050333;28;20438;-78
2023/02/16 17:22:02;;;;;;;;;;;;;;;;;;5050614;28;19927;-78